Spearsville, Indiana
Current Conditions -  °F | °C
As of 1:15 PM on Thursday 23 Oct 2014 (Local Time) from K1II Reporting Station
Clear Clear  
Wind Chill: 55°   Ceiling: Unl
Heat Index: 55°   Visibility: 10mi
Dew Point: 41°   Wind: 0mph
Humidity: 58%   Direction: NA
Pressure: 30.23"   Gusts: NA
Location:  39.3709°N, 86.1938°W
Report Text: K1II 231715Z AUTO 00000KT 10SM CLR 13/05 A3023 RMK AO2
Loading
Personal Weather Stations






























Interactive Weather Map
Tropical Storm Tracking
New forecast layout! Learn more

10-Day Weather Forecast

Advertisements
Track Severe Weather on mobile